createdAt,value
2022-10-22T00:02:07.498Z,1.98
2022-10-22T00:04:35.784Z,2.08
2022-10-22T00:07:03.920Z,2.20
2022-10-22T00:09:31.614Z,2.05
2022-10-22T00:11:59.396Z,2.45
2022-10-22T00:14:27.125Z,2.17
2022-10-22T00:16:56.335Z,2.40
2022-10-22T00:19:25.440Z,2.17
2022-10-22T00:21:53.201Z,2.00
2022-10-22T00:24:21.210Z,2.13
2022-10-22T00:26:49.333Z,2.17
2022-10-22T00:29:18.649Z,1.98
2022-10-22T00:31:49.769Z,2.15
2022-10-22T00:34:18.088Z,2.00
2022-10-22T00:36:47.371Z,2.30
2022-10-22T00:39:16.264Z,2.28
2022-10-22T00:41:44.083Z,2.00
2022-10-22T00:44:45.021Z,1.85
2022-10-22T00:47:12.862Z,2.60
2022-10-22T00:49:40.569Z,2.38
2022-10-22T00:52:09.862Z,3.00
2022-10-22T00:54:38.171Z,2.25
2022-10-22T00:57:06.014Z,2.25
2022-10-22T00:59:34.213Z,2.63
2022-10-22T01:02:01.942Z,2.05
2022-10-22T01:04:29.712Z,2.33
2022-10-22T01:06:57.582Z,2.33
2022-10-22T01:09:31.632Z,2.28
2022-10-22T01:12:03.881Z,2.15
2022-10-22T01:14:37.410Z,2.08
2022-10-22T01:17:08.611Z,2.42
2022-10-22T01:19:51.957Z,2.15
2022-10-22T01:22:23.139Z,2.15
2022-10-22T01:25:07.302Z,2.40
2022-10-22T01:27:53.744Z,2.70
2022-10-22T01:30:23.613Z,2.13
2022-10-22T01:32:53.619Z,2.65
2022-10-22T01:35:25.663Z,2.63
2022-10-22T01:37:56.690Z,2.80
2022-10-22T01:40:25.284Z,2.35
2022-10-22T01:42:58.372Z,2.67
2022-10-22T01:45:27.908Z,2.38
2022-10-22T01:48:01.096Z,2.60
2022-10-22T01:50:47.344Z,2.70
2022-10-22T01:53:22.761Z,2.70
2022-10-22T01:56:00.123Z,2.53
2022-10-22T01:58:39.298Z,2.47
2022-10-22T02:01:14.823Z,2.42
2022-10-22T02:03:46.696Z,2.53
2022-10-22T02:06:18.856Z,2.60
2022-10-22T02:08:48.173Z,2.45
2022-10-22T02:11:16.708Z,3.45
2022-10-22T02:13:46.609Z,2.67
2022-10-22T02:16:18.404Z,2.58
2022-10-22T02:18:48.722Z,2.97
2022-10-22T02:21:17.136Z,2.80
2022-10-22T02:23:45.114Z,3.35
2022-10-22T02:26:17.289Z,2.80
2022-10-22T02:28:48.618Z,3.00
2022-10-22T02:31:22.624Z,2.78
2022-10-22T02:33:52.813Z,2.60
2022-10-22T02:36:21.324Z,2.55
2022-10-22T02:38:51.106Z,3.10
2022-10-22T02:41:19.548Z,3.05
2022-10-22T02:43:51.084Z,3.03
2022-10-22T02:46:20.342Z,3.30
2022-10-22T02:48:48.401Z,2.92
2022-10-22T02:51:16.590Z,3.00
2022-10-22T02:53:44.321Z,2.95
2022-10-22T02:56:12.585Z,3.05
2022-10-22T02:58:40.322Z,3.40
2022-10-22T03:01:09.470Z,3.35
2022-10-22T03:03:40.433Z,3.35
2022-10-22T03:06:08.829Z,3.08
2022-10-22T03:08:36.874Z,3.40
2022-10-22T03:11:04.711Z,3.25
2022-10-22T03:13:32.452Z,3.45
2022-10-22T03:16:00.249Z,2.97
2022-10-22T03:18:28.004Z,3.40
2022-10-22T03:21:03.225Z,3.90
2022-10-22T03:23:31.786Z,3.25
2022-10-22T03:26:00.308Z,3.88
2022-10-22T03:28:27.966Z,3.72
2022-10-22T03:30:55.667Z,3.80
2022-10-22T03:33:23.339Z,3.42
2022-10-22T03:35:51.065Z,3.10
2022-10-22T03:38:20.201Z,3.38
2022-10-22T03:40:48.481Z,3.47
2022-10-22T03:43:16.658Z,4.75
2022-10-22T03:45:44.470Z,3.17
2022-10-22T03:48:12.206Z,3.50
2022-10-22T03:50:39.972Z,3.63
2022-10-22T03:53:10.513Z,3.88
2022-10-22T03:55:41.599Z,3.63
2022-10-22T03:58:09.354Z,3.63
2022-10-22T04:00:37.922Z,3.50
2022-10-22T04:03:05.839Z,3.60
2022-10-22T04:05:33.783Z,3.60
2022-10-22T04:08:01.559Z,3.67
2022-10-22T04:10:29.366Z,3.40
2022-10-22T04:12:58.437Z,3.45
2022-10-22T04:15:28.076Z,3.80
2022-10-22T04:17:56.305Z,4.00
2022-10-22T04:20:24.089Z,4.03
2022-10-22T04:22:51.863Z,3.45
2022-10-22T04:25:19.718Z,4.13
2022-10-22T04:27:47.455Z,3.70
2022-10-22T04:30:16.743Z,4.35
2022-10-22T04:32:44.514Z,4.15
2022-10-22T04:35:12.326Z,3.80
2022-10-22T04:37:40.316Z,4.28
2022-10-22T04:40:09.619Z,4.45
2022-10-22T04:42:37.397Z,4.10
2022-10-22T04:45:05.752Z,4.45
2022-10-22T04:47:34.875Z,3.60
2022-10-22T04:50:02.647Z,5.22
2022-10-22T04:52:30.510Z,4.68
2022-10-22T04:54:58.308Z,4.40
2022-10-22T04:57:26.121Z,5.28
2022-10-22T04:59:53.850Z,6.10
2022-10-22T05:02:21.583Z,4.88
2022-10-22T05:04:50.684Z,4.97
2022-10-22T05:07:18.457Z,4.78
2022-10-22T05:09:46.195Z,4.78
2022-10-22T05:12:13.905Z,4.97
2022-10-22T05:14:44.048Z,5.65
2022-10-22T05:17:12.645Z,5.57
2022-10-22T05:19:40.448Z,4.65
2022-10-22T05:22:09.591Z,5.80
2022-10-22T05:24:37.915Z,4.80
2022-10-22T05:27:05.837Z,5.55
2022-10-22T05:29:33.641Z,5.78
2022-10-22T05:32:01.373Z,4.97
2022-10-22T05:34:29.076Z,5.60
2022-10-22T05:36:56.841Z,5.90
2022-10-22T05:39:25.927Z,5.97
2022-10-22T05:41:53.921Z,6.00
2022-10-22T05:44:21.683Z,5.70
2022-10-22T05:46:49.437Z,6.32
2022-10-22T05:49:17.243Z,5.43
2022-10-22T05:51:45.149Z,5.47
2022-10-22T05:54:18.101Z,5.00
2022-10-22T05:56:47.655Z,5.32
2022-10-22T05:59:15.478Z,6.18
2022-10-22T06:01:43.231Z,6.13
2022-10-22T06:04:12.912Z,5.93
2022-10-22T06:06:42.148Z,6.13
2022-10-22T06:09:16.209Z,6.18
2022-10-22T06:11:44.042Z,5.95
2022-10-22T06:14:13.137Z,6.25
2022-10-22T06:16:41.074Z,5.95
2022-10-22T06:19:09.514Z,5.70
2022-10-22T06:21:37.373Z,5.45
2022-10-22T06:24:05.863Z,6.18
2022-10-22T06:26:33.624Z,6.45
2022-10-22T06:29:01.549Z,6.80
2022-10-22T06:31:36.514Z,6.00
2022-10-22T06:34:04.567Z,6.10
2022-10-22T06:36:32.333Z,5.95
2022-10-22T06:39:00.131Z,8.98
2022-10-22T06:41:29.550Z,6.38
2022-10-22T06:43:58.265Z,6.35
2022-10-22T06:46:26.977Z,6.50
2022-10-22T06:48:57.503Z,6.25
2022-10-22T06:51:25.900Z,6.43
2022-10-22T06:53:54.243Z,6.05
2022-10-22T06:56:23.658Z,6.00
2022-10-22T06:58:53.224Z,5.88
2022-10-22T07:01:23.939Z,5.82
2022-10-22T07:03:52.455Z,6.22
2022-10-22T07:06:22.767Z,5.95
2022-10-22T07:08:50.725Z,5.13
2022-10-22T07:11:20.445Z,5.45
2022-10-22T07:13:48.530Z,5.57
2022-10-22T07:16:18.382Z,5.95
2022-10-22T07:18:47.185Z,5.80
2022-10-22T07:21:16.570Z,5.57
2022-10-22T07:23:45.860Z,5.30
2022-10-22T07:26:15.824Z,4.53
2022-10-22T07:28:43.715Z,5.05
2022-10-22T07:31:13.195Z,4.75
2022-10-22T07:33:41.369Z,4.15
2022-10-22T07:36:10.862Z,4.45
2022-10-22T07:38:38.743Z,4.32
2022-10-22T07:41:07.917Z,3.97
2022-10-22T07:43:35.686Z,4.10
2022-10-22T07:46:03.661Z,4.03
2022-10-22T07:48:31.573Z,3.47
2022-10-22T07:50:59.347Z,3.40
2022-10-22T07:53:27.151Z,3.53
2022-10-22T07:55:54.944Z,3.30
2022-10-22T07:58:24.157Z,3.45
2022-10-22T08:00:52.538Z,2.92
2022-10-22T08:03:20.301Z,2.90
2022-10-22T08:05:48.477Z,2.97
2022-10-22T08:08:17.536Z,2.78
2022-10-22T08:10:45.610Z,3.08
2022-10-22T08:13:13.343Z,2.90
2022-10-22T08:18:15.881Z,2.45
2022-10-22T08:20:43.660Z,2.67
2022-10-22T08:23:11.474Z,3.08
2022-10-22T08:25:39.233Z,2.50
2022-10-22T08:28:07.019Z,1.98
2022-10-22T08:30:37.467Z,2.20
2022-10-22T08:33:06.915Z,2.30
2022-10-22T08:35:34.862Z,2.13
2022-10-22T08:38:02.616Z,2.38
2022-10-22T08:40:33.629Z,2.42
2022-10-22T08:43:18.045Z,2.80
2022-10-22T08:45:52.006Z,2.28
2022-10-22T08:48:32.559Z,2.25
2022-10-22T08:51:00.449Z,1.60
2022-10-22T08:53:33.383Z,1.85
2022-10-22T08:56:01.225Z,2.25
2022-10-22T08:58:35.516Z,2.00
2022-10-22T09:01:09.419Z,2.15
2022-10-22T09:03:47.671Z,1.92
2022-10-22T09:06:18.344Z,1.85
2022-10-22T09:08:47.569Z,1.98
2022-10-22T09:11:24.049Z,2.35
2022-10-22T09:13:54.008Z,2.50
2022-10-22T09:16:26.327Z,2.40
2022-10-22T09:19:04.696Z,1.67
2022-10-22T09:21:37.107Z,2.28
2022-10-22T09:24:07.690Z,2.05
2022-10-22T09:26:38.973Z,2.47
2022-10-22T09:29:08.154Z,2.30
2022-10-22T09:31:36.294Z,2.45
2022-10-22T09:34:07.664Z,2.33
2022-10-22T09:36:36.940Z,2.40
2022-10-22T09:39:05.189Z,3.08
2022-10-22T09:41:33.162Z,2.50
2022-10-22T09:44:00.930Z,2.70
2022-10-22T09:46:30.784Z,2.58
2022-10-22T09:49:05.914Z,2.83
2022-10-22T09:51:47.991Z,2.37
2022-10-22T09:54:19.087Z,3.03
2022-10-22T09:56:53.913Z,3.15
2022-10-22T09:59:29.389Z,2.15
2022-10-22T10:02:08.385Z,2.95
2022-10-22T10:04:49.994Z,2.20
2022-10-22T10:07:19.507Z,2.28
2022-10-22T10:09:47.994Z,2.40
2022-10-22T10:12:26.197Z,2.38
2022-10-22T10:15:02.278Z,2.40
2022-10-22T10:17:35.670Z,2.30
2022-10-22T10:20:16.953Z,2.15
2022-10-22T10:22:54.491Z,2.40
2022-10-22T10:25:36.669Z,2.40
2022-10-22T10:28:13.786Z,2.47
2022-10-22T10:30:47.326Z,2.30
2022-10-22T10:33:23.376Z,2.40
2022-10-22T10:35:56.768Z,2.03
2022-10-22T10:38:34.928Z,2.65
2022-10-22T10:41:12.709Z,2.40
2022-10-22T10:43:49.404Z,2.13
2022-10-22T10:46:23.176Z,2.20
2022-10-22T10:48:51.995Z,2.53
2022-10-22T11:01:38.217Z,1.98
2022-10-22T11:09:19.031Z,1.48
2022-10-22T11:11:51.064Z,1.95
2022-10-22T11:14:23.427Z,1.63
2022-10-22T11:16:57.001Z,1.67
2022-10-22T11:19:49.546Z,1.65
2022-10-22T11:22:23.396Z,1.80
2022-10-22T11:24:57.459Z,1.70
2022-10-22T11:27:29.907Z,1.25
2022-10-22T11:30:00.803Z,1.48
2022-10-22T11:32:29.109Z,1.67
2022-10-22T11:34:58.823Z,1.90
2022-10-22T11:37:34.432Z,1.60
2022-10-22T11:40:05.398Z,1.40
2022-10-22T11:42:34.763Z,1.45
2022-10-22T11:45:05.913Z,1.50
2022-10-22T11:47:35.612Z,1.40
2022-10-22T11:50:27.628Z,1.48
2022-10-22T11:53:02.556Z,1.40
2022-10-22T11:55:46.026Z,1.35
2022-10-22T11:58:44.858Z,1.63
2022-10-22T12:01:26.800Z,1.70
2022-10-22T12:04:10.165Z,1.70
2022-10-22T12:06:53.913Z,1.80
2022-10-22T12:09:26.046Z,1.73
2022-10-22T12:11:53.822Z,1.42
2022-10-22T12:14:26.527Z,1.52
2022-10-22T12:16:57.902Z,1.70
2022-10-22T12:19:28.696Z,1.33
2022-10-22T12:21:59.275Z,1.50
2022-10-22T12:24:33.286Z,1.50
2022-10-22T12:27:01.087Z,1.30
2022-10-22T12:29:28.820Z,1.50
2022-10-22T12:31:57.649Z,1.50
2022-10-22T12:34:26.241Z,1.50
2022-10-22T12:36:54.900Z,1.42
2022-10-22T12:39:25.199Z,1.27
2022-10-22T12:41:55.516Z,1.50
2022-10-22T12:44:23.286Z,1.00
2022-10-22T12:46:54.552Z,1.33
2022-10-22T12:49:27.154Z,1.30
2022-10-22T12:51:54.991Z,1.20
2022-10-22T12:54:26.037Z,1.20
2022-10-22T12:56:56.477Z,1.45
2022-10-22T12:59:25.800Z,1.35
2022-10-22T13:01:53.974Z,1.40
2022-10-22T13:04:31.133Z,1.55
2022-10-22T13:07:19.896Z,1.40
2022-10-22T13:09:58.780Z,1.60
2022-10-22T13:12:29.409Z,1.40
2022-10-22T13:14:57.195Z,1.20
2022-10-22T13:17:40.355Z,1.48
2022-10-22T13:20:19.081Z,1.23
2022-10-22T13:23:00.165Z,1.50
2022-10-22T13:25:29.997Z,1.50
2022-10-22T13:28:00.914Z,1.40
2022-10-22T13:30:32.228Z,1.60
2022-10-22T13:33:01.652Z,1.40
2022-10-22T13:35:32.113Z,1.50
2022-10-22T13:37:59.962Z,1.50
2022-10-22T13:40:28.206Z,1.52
2022-10-22T13:42:56.011Z,1.40
2022-10-22T13:45:25.160Z,1.40
2022-10-22T13:47:54.406Z,1.60
2022-10-22T13:50:22.817Z,1.63
2022-10-22T13:52:53.370Z,1.55
2022-10-22T13:55:25.366Z,1.55
2022-10-22T13:57:53.653Z,1.42
2022-10-22T14:00:22.675Z,1.30
2022-10-22T14:02:54.910Z,1.30
2022-10-22T14:05:22.734Z,1.40
2022-10-22T14:07:50.793Z,1.17
2022-10-22T14:10:21.239Z,1.30
2022-10-22T14:12:52.440Z,1.27
2022-10-22T14:15:23.688Z,1.40
2022-10-22T14:17:54.987Z,1.40
2022-10-22T14:20:24.202Z,1.27
2022-10-22T14:22:52.573Z,1.42
2022-10-22T14:25:22.339Z,1.20
2022-10-22T14:27:50.186Z,1.38
2022-10-22T14:30:20.564Z,1.38
2022-10-22T14:32:48.789Z,1.13
2022-10-22T14:35:19.777Z,1.15
2022-10-22T14:37:47.782Z,1.40
2022-10-22T14:40:17.402Z,1.20
2022-10-22T14:42:46.701Z,1.10
2022-10-22T14:45:18.415Z,1.38
2022-10-22T14:47:46.180Z,1.30
2022-10-22T14:50:14.552Z,1.25
2022-10-22T14:52:44.321Z,1.50
2022-10-22T14:55:13.412Z,1.10
2022-10-22T14:57:41.747Z,1.48
2022-10-22T15:00:13.177Z,1.55
2022-10-22T15:02:41.250Z,1.63
2022-10-22T15:05:09.647Z,1.45
2022-10-22T15:07:37.882Z,2.03
2022-10-22T15:10:08.697Z,1.70
2022-10-22T15:12:36.603Z,1.67
2022-10-22T15:15:04.888Z,1.48
2022-10-22T15:17:32.653Z,1.30
2022-10-22T15:20:03.889Z,1.48
2022-10-22T15:22:35.057Z,1.60
2022-10-22T15:25:03.646Z,1.90
2022-10-22T15:27:32.776Z,1.80
2022-10-22T15:30:00.537Z,1.63
2022-10-22T15:32:29.201Z,1.80
2022-10-22T15:34:57.431Z,1.63
2022-10-22T15:37:25.214Z,1.90
2022-10-22T15:39:58.694Z,2.38
2022-10-22T15:42:29.134Z,2.17
2022-10-22T15:44:59.939Z,3.35
2022-10-22T15:47:29.546Z,3.00
2022-10-22T15:49:57.647Z,2.30
2022-10-22T15:52:25.381Z,2.88
2022-10-22T15:54:53.205Z,2.00
2022-10-22T15:57:20.965Z,2.70
2022-10-22T15:59:49.983Z,1.92
2022-10-22T16:02:19.143Z,2.10
2022-10-22T16:04:46.928Z,1.85
2022-10-22T16:07:14.732Z,1.77
2022-10-22T16:09:42.466Z,2.15
2022-10-22T16:12:11.456Z,2.40
2022-10-22T16:14:41.096Z,2.10
2022-10-22T16:17:08.845Z,2.10
2022-10-22T16:19:37.956Z,2.13
2022-10-22T16:22:06.039Z,2.20
2022-10-22T16:24:33.769Z,2.25
2022-10-22T16:27:01.690Z,2.45
2022-10-22T16:29:29.403Z,2.50
2022-10-22T16:31:57.122Z,2.63
2022-10-22T16:34:27.324Z,2.60
2022-10-22T16:36:56.951Z,3.20
2022-10-22T16:39:25.034Z,2.95
2022-10-22T16:41:52.862Z,2.75
2022-10-22T16:44:20.667Z,2.80
2022-10-22T16:46:48.441Z,4.00
2022-10-22T16:49:16.173Z,3.77
2022-10-22T16:51:43.946Z,4.43
2022-10-22T16:54:14.260Z,4.57
2022-10-22T16:56:42.066Z,4.70
2022-10-22T16:59:09.890Z,5.57
2022-10-22T17:01:40.989Z,5.85
2022-10-22T17:04:09.708Z,6.30
2022-10-22T17:06:37.562Z,6.07
2022-10-22T17:09:05.527Z,5.97
2022-10-22T17:11:37.105Z,5.80
2022-10-22T17:14:07.123Z,5.93
2022-10-22T17:16:34.950Z,6.22
2022-10-22T17:19:04.555Z,5.97
2022-10-22T17:21:32.276Z,6.03
2022-10-22T17:24:00.049Z,5.70
2022-10-22T17:26:27.802Z,5.37
2022-10-22T17:28:57.001Z,5.45
2022-10-22T17:31:26.510Z,8.32
2022-10-22T17:33:55.976Z,8.82
2022-10-22T17:36:25.309Z,6.20
2022-10-22T17:38:54.888Z,5.70
2022-10-22T17:41:24.100Z,6.45
2022-10-22T17:43:51.903Z,4.90
2022-10-22T17:46:22.393Z,6.82
2022-10-22T17:48:50.873Z,5.67
2022-10-22T17:51:19.237Z,5.95
2022-10-22T17:53:47.482Z,5.97
2022-10-22T17:56:17.255Z,6.15
2022-10-22T17:58:45.053Z,6.33
2022-10-22T18:01:23.278Z,6.32
2022-10-22T18:03:51.727Z,6.15
2022-10-22T18:06:19.885Z,5.32
2022-10-22T18:08:47.882Z,5.93
2022-10-22T18:11:18.825Z,5.13
2022-10-22T18:13:49.732Z,4.30
2022-10-22T18:16:17.709Z,8.48
2022-10-22T18:18:48.514Z,10.88
2022-10-22T18:21:16.711Z,6.63
2022-10-22T18:23:45.003Z,4.65
2022-10-22T18:26:12.868Z,5.05
2022-10-22T18:28:40.753Z,6.03
2022-10-22T18:31:13.793Z,6.32
2022-10-22T18:33:41.763Z,4.87
2022-10-22T18:36:12.787Z,4.90
2022-10-22T18:38:40.713Z,4.25
2022-10-22T18:41:09.559Z,4.40
2022-10-22T18:43:37.746Z,4.45
2022-10-22T18:46:07.659Z,4.07
2022-10-22T18:48:36.223Z,3.33
2022-10-22T18:51:06.525Z,3.60
2022-10-22T18:53:36.275Z,3.95
2022-10-22T18:56:05.825Z,3.42
2022-10-22T18:58:38.116Z,3.83
2022-10-22T19:01:09.713Z,3.50
2022-10-22T19:03:37.838Z,3.47
2022-10-22T19:06:05.888Z,3.15
2022-10-22T19:08:35.852Z,3.30
2022-10-22T19:11:09.263Z,4.50
2022-10-22T19:13:37.039Z,18.70
2022-10-22T19:16:05.565Z,4.18
2022-10-22T19:18:33.443Z,4.05
2022-10-22T19:21:02.577Z,3.70
2022-10-22T19:23:31.228Z,3.88
2022-10-22T19:26:04.671Z,3.50
2022-10-22T19:28:33.040Z,3.35
2022-10-22T19:31:01.038Z,3.35
2022-10-22T19:33:29.061Z,3.60
2022-10-22T19:35:56.880Z,4.50
2022-10-22T19:38:29.549Z,4.70
2022-10-22T19:40:57.323Z,4.20
2022-10-22T19:43:29.117Z,4.38
2022-10-22T19:45:57.057Z,4.53
2022-10-22T19:48:25.456Z,4.57
2022-10-22T19:50:59.626Z,4.70
2022-10-22T19:53:27.346Z,4.65
2022-10-22T19:55:55.117Z,4.95
2022-10-22T19:58:23.013Z,4.53
2022-10-22T20:00:52.142Z,5.00
2022-10-22T20:03:20.715Z,4.30
2022-10-22T20:05:48.590Z,3.95
2022-10-22T20:08:16.373Z,4.50
2022-10-22T20:10:44.147Z,4.63
2022-10-22T20:13:11.906Z,4.45
2022-10-22T20:15:39.642Z,3.75
2022-10-22T20:18:08.797Z,4.25
2022-10-22T20:20:38.933Z,4.20
2022-10-22T20:23:08.530Z,4.25
2022-10-22T20:25:36.352Z,3.95
2022-10-22T20:28:04.161Z,4.20
2022-10-22T20:30:31.922Z,4.53
2022-10-22T20:32:59.682Z,4.80
2022-10-22T20:35:28.790Z,5.30
2022-10-22T20:37:56.587Z,4.60
2022-10-22T20:40:26.602Z,5.47
2022-10-22T20:42:54.514Z,5.70
2022-10-22T20:45:22.252Z,5.38
2022-10-22T20:47:58.266Z,6.00
2022-10-22T20:50:32.321Z,5.72
2022-10-22T20:53:00.418Z,5.50
2022-10-22T20:55:28.224Z,5.65
2022-10-22T20:57:56.277Z,4.70
2022-10-22T21:00:24.008Z,5.18
2022-10-22T21:02:51.775Z,4.70
2022-10-22T21:05:19.542Z,4.47
2022-10-22T21:07:48.645Z,4.30
2022-10-22T21:10:16.636Z,5.00
2022-10-22T21:12:45.448Z,4.70
2022-10-22T21:15:13.762Z,4.45
2022-10-22T21:17:41.635Z,4.60
2022-10-22T21:22:38.823Z,4.85
2022-10-22T21:25:08.804Z,4.88
2022-10-22T21:27:37.591Z,5.10
2022-10-22T21:30:05.863Z,5.13
2022-10-22T21:32:33.623Z,4.90
2022-10-22T21:35:01.429Z,5.10
2022-10-22T21:37:30.064Z,4.83
2022-10-22T21:39:58.177Z,4.13
2022-10-22T21:42:27.275Z,4.10
2022-10-22T21:44:55.107Z,4.60
2022-10-22T21:47:22.905Z,4.22
2022-10-22T21:49:50.669Z,4.53
2022-10-22T21:52:18.384Z,4.53
2022-10-22T21:54:48.743Z,4.17
2022-10-22T21:57:16.518Z,4.18
2022-10-22T21:59:45.620Z,3.90
2022-10-22T22:02:13.401Z,3.60
2022-10-22T22:04:41.242Z,3.80
2022-10-22T22:07:09.035Z,3.17
2022-10-22T22:09:36.765Z,3.33
2022-10-22T22:12:04.755Z,3.03
2022-10-22T22:14:32.668Z,3.07
2022-10-22T22:17:01.827Z,2.72
2022-10-22T22:19:29.607Z,2.65
2022-10-22T22:21:57.311Z,2.60
2022-10-22T22:24:25.089Z,2.80
2022-10-22T22:26:52.867Z,2.55
2022-10-22T22:29:20.618Z,2.67
2022-10-22T22:31:48.505Z,2.70
2022-10-22T22:34:18.528Z,3.30
2022-10-22T22:36:47.983Z,2.80
2022-10-22T22:39:17.881Z,3.30
2022-10-22T22:41:46.180Z,3.55
2022-10-22T22:44:14.289Z,3.30
2022-10-22T22:46:42.342Z,3.20
2022-10-22T22:49:10.220Z,3.60
2022-10-22T22:51:39.344Z,3.65
2022-10-22T22:54:07.066Z,3.30
2022-10-22T22:56:35.302Z,3.22
2022-10-22T22:59:03.610Z,2.92
2022-10-22T23:01:33.017Z,3.40
2022-10-22T23:04:02.539Z,3.38
2022-10-22T23:06:32.964Z,3.50
2022-10-22T23:09:02.128Z,3.72
2022-10-22T23:11:30.058Z,3.50
2022-10-22T23:13:59.190Z,3.88
2022-10-22T23:16:28.418Z,3.53
2022-10-22T23:18:56.784Z,4.00
2022-10-22T23:21:26.570Z,3.40
2022-10-22T23:23:55.774Z,3.92
2022-10-22T23:26:26.987Z,3.80
2022-10-22T23:28:55.395Z,4.20
2022-10-22T23:31:23.135Z,3.72
2022-10-22T23:33:50.856Z,3.85
2022-10-22T23:36:18.628Z,4.38
2022-10-22T23:38:46.618Z,4.30
2022-10-22T23:41:14.696Z,4.18
2022-10-22T23:43:43.937Z,3.92
2022-10-22T23:46:13.060Z,4.13
2022-10-22T23:48:41.212Z,4.30
2022-10-22T23:51:10.963Z,4.00
2022-10-22T23:53:38.915Z,4.03
2022-10-22T23:56:08.569Z,4.35
2022-10-22T23:58:36.720Z,3.80
